• Join FlightAware (Why Join?)
  • Login
  • US Flag 
08:53PM EDT


 

Airport Tracker/Info


-or-


 

Live Flight TrackerFlight Track Log ✈ EVA635 ✈ 02-Oct-2013 ✈ PANC - RCTP / TPE

Flight Track Log - Related Links

Times and Time Zones

All times are in EDT time to prevent confusion due to time zone crossing. See the EVA635 flight status page for this flight to view local times or setup timezone preferences in your user account.

Time Position Orientation Groundspeed Altitude Reporting Facility
EDT Latitude Longitude Course Direction KTS MPH feet Rate Location/Type
10:01PM 61.1880 -150.0080 360° North 155 178  Level FlightAware
10:01PM 61.2060 -150.0180 345° North 180 207 800 2,160 Climbing FlightAware
10:01PM 61.2180 -150.0270 340° North 183 211 1,400 1,980 Climbing FlightAware
10:01PM 61.2228 -150.0355 319° Northwest 187 215 1,600 1,680 Climbing FlightAware ADS-B
10:02PM 61.2353 -150.0570 320° Northwest 193 222 2,200 1,620 Climbing FlightAware ADS-B
10:02PM 61.2472 -150.0766 321° Northwest 202 232 2,700 1,680 Climbing FlightAware ADS-B
10:02PM 61.2545 -150.0903 318° Northwest 204 235 2,900 1,740 Climbing FlightAware ADS-B
10:02PM 61.2644 -150.1277 299° West 205 236 3,500 1,200 Climbing FlightAware ADS-B
10:03PM 61.2741 -150.1705 295° West 220 253 3,800 660 Climbing FlightAware ADS-B
10:03PM 61.2830 -150.2353 286° West 258 297 4,100 840 Climbing FlightAware ADS-B
10:04PM 61.2856 -150.2823 277° West 276 318 4,500 1,320 Climbing FlightAware ADS-B
10:04PM 61.2854 -150.3279 269° West 291 335 5,000 1,920 Climbing FlightAware ADS-B
10:04PM 61.2828 -150.3965 266° West 299 344 5,800 2,820 Climbing FlightAware ADS-B
10:05PM 61.2804 -150.4409 264° West 305 351 6,700 2,760 Climbing FlightAware ADS-B
10:05PM 61.2759 -150.5151 263° West 311 358 7,700 2,520 Climbing FlightAware ADS-B
10:05PM 61.2716 -150.5758 262° West 316 364 8,600 2,100 Climbing FlightAware ADS-B
10:06PM 61.2674 -150.6346 261° West 333 383 9,100 2,520 Climbing FlightAware ADS-B
10:06PM 61.2607 -150.7288 262° West 331 381 10,700 2,160 Climbing FlightAware ADS-B
10:07PM 61.2534 -150.8295 262° West 362 417 11,300 1,140 Climbing FlightAware ADS-B
10:07PM 61.2455 -150.9404 262° West 392 451 11,900 1,560 Climbing FlightAware ADS-B
10:08PM 61.2373 -151.0541 262° West 408 470 12,900 2,400 Climbing FlightAware ADS-B
10:08PM 61.2287 -151.1710 261° West 411 473 14,300 2,640 Climbing FlightAware ADS-B
10:09PM 61.2170 -151.3280 261° West 415 478 16,000 2,460 Climbing FlightAware ADS-B
10:09PM 61.2082 -151.4447 261° West 419 482 17,200 2,400 Climbing FlightAware ADS-B
10:10PM 61.1992 -151.5644 261° West 421 484 18,400 2,280 Climbing FlightAware ADS-B
10:11PM 61.1884 -151.7035 261° West 426 490 19,900 2,100 Climbing FlightAware ADS-B
10:12PM 61.1715 -151.9519 262° West 430 495 21,900 1,980 Climbing FlightAware ADS-B
10:12PM 61.1694 -152.0912 268° West 433 498 22,900 1,800 Climbing FlightAware ADS-B
10:13PM 61.1688 -152.2067 269° West 437 503 23,800 1,740 Climbing FlightAware ADS-B
10:13PM 61.1679 -152.3613 269° West 443 510 24,800 1,500 Climbing FlightAware ADS-B
10:14PM 61.1660 -152.5610 269° West 451 519 25,900 1,320 Climbing FlightAware
10:15PM 61.1640 -152.7190 269° West 457 526 26,700 1,320 Climbing FlightAware
10:15PM 61.1630 -152.8340 269° West 460 529 27,300 1,440 Climbing FlightAware
10:16PM 61.1610 -152.9860 269° West 461 531 28,200 1,500 Climbing FlightAware
10:16PM 61.1580 -153.1500 268° West 459 528 29,100 1,440 Climbing FlightAware
10:17PM 61.1560 -153.3090 269° West 458 527 30,000 780 Climbing FlightAware
10:17PM 61.1540 -153.4460 268° West 459 528 30,000  Level FlightAware
10:18PM 61.1510 -153.5980 268° West 459 528 30,000  Level FlightAware
10:18PM 61.1480 -153.7640 268° West 460 529 30,000  Level FlightAware
10:19PM 61.1450 -153.9260 268° West 461 531 30,000  Level FlightAware
10:20PM 61.1400 -154.1220 267° West 461 531 30,000  Level FlightAware
10:21PM 61.1370 -154.2570 267° West 461 531 30,000  Level FlightAware
10:21PM 61.1330 -154.3920 267° West 461 531 30,000  Level FlightAware
10:22PM 61.1300 -154.5300 267° West 461 531 30,000  Level FlightAware
10:22PM 61.1260 -154.6650 267° West 461 531 30,000  Level FlightAware
10:23PM 61.1230 -154.8000 267° West 461 531 30,000  Level FlightAware
10:24PM 61.1190 -154.9390 267° West 461 531 30,000  Level FlightAware
10:24PM 61.1160 -155.0740 267° West 461 531 30,000  Level FlightAware
10:25PM 61.1120 -155.2090 267° West 461 531 30,000  Level FlightAware
10:25PM 61.1090 -155.3440 267° West 461 531 30,000  Level FlightAware
10:26PM 61.1060 -155.4790 267° West 461 531 30,000  Level FlightAware
10:27PM 61.1020 -155.6140 267° West 461 531 30,000  Level FlightAware
10:27PM 61.0990 -155.7480 267° West 461 531 30,000  Level FlightAware
10:28PM 61.0950 -155.8830 267° West 461 531 30,000  Level FlightAware
10:28PM 61.0920 -156.0220 268° West 461 531 30,000  Level FlightAware
10:29PM 61.0880 -156.1570 267° West 461 531 30,000  Level FlightAware
10:30PM 61.0000 -156.6833 267° West 460 529 30,000  Level Anchorage Center
10:31PM 60.9667 -156.8833 251° West 470 541 30,000  Level Anchorage Center
10:32PM 60.9500 -157.2167 264° West 470 541 30,000  Level Anchorage Center
10:33PM 60.9167 -157.4667 255° West 460 529 30,000  Level Anchorage Center
10:34PM 60.9000 -157.7333 263° West 470 541 30,000  Level Anchorage Center
10:35PM 60.8667 -158.0000 256° West 470 541 30,000  Level Anchorage Center
10:36PM 60.8333 -158.3167 258° West 460 529 30,000  Level Anchorage Center
10:37PM 60.8000 -158.5667 255° West 460 529 30,000  Level Anchorage Center
10:38PM 60.7833 -158.8333 263° West 470 541 30,000  Level Anchorage Center
10:39PM 60.7500 -159.1000 256° West 470 541 30,000  Level Anchorage Center
10:40PM 60.7167 -159.4167 258° West 470 541 30,000  Level Anchorage Center
10:41PM 60.6833 -159.6667 255° West 470 541 30,000  Level Anchorage Center
10:42PM 60.6500 -159.9333 256° West 470 541 30,000  Level Anchorage Center
10:43PM 60.6167 -160.2000 256° West 470 541 30,000  Level Anchorage Center
10:44PM 60.5833 -160.4500 255° West 470 541 30,000  Level Anchorage Center
10:45PM 60.5500 -160.7167 256° West 470 541 30,000  Level Anchorage Center
10:46PM 60.5167 -160.9667 255° West 470 541 30,000  Level Anchorage Center
10:47PM 60.4833 -161.2333 256° West 470 541 30,000  Level Anchorage Center
10:48PM 60.4500 -161.5000 256° West 470 541 30,000  Level Anchorage Center
10:49PM 60.4167 -161.7500 255° West 470 541 30,000  Level Anchorage Center
10:50PM 60.3833 -162.0167 256° West 470 541 30,000  Level Anchorage Center
10:51PM 60.3500 -162.2667 255° West 470 541 30,000  Level Anchorage Center
10:52PM 60.3000 -162.5333 249° West 480 552 30,000  Level Anchorage Center
10:53PM 60.2833 -162.7333 261° West 480 552 30,000  Level Anchorage Center
10:54PM 60.2333 -163.0500 252° West 470 541 30,000  Level Anchorage Center
10:55PM 60.2000 -163.3000 255° West 480 552 30,000  Level Anchorage Center
10:57PM 60.1333 -163.6667 250° West 480 552 30,000  Level Anchorage Center
10:58PM 60.1000 -163.9167 255° West 470 541 30,000  Level Anchorage Center
10:59PM 60.0667 -164.1833 256° West 480 552 30,000  Level Anchorage Center
11:00PM 60.0333 -164.4333 255° West 470 541 30,000  Level Anchorage Center
11:01PM 59.9833 -164.7000 250° West 480 552 30,000  Level Anchorage Center
11:02PM 59.9500 -164.9500 255° West 470 541 30,000  Level Anchorage Center
11:03PM 59.9000 -165.2167 250° West 480 552 30,000  Level Anchorage Center
11:04PM 59.8667 -165.4667 255° West 470 541 30,000  Level Anchorage Center
11:05PM 59.8167 -165.7167 248° West 480 552 30,000  Level Anchorage Center
11:06PM 59.7833 -165.9667 255° West 480 552 30,000  Level Anchorage Center
11:07PM 59.7333 -166.2167 248° West 470 541 30,000  Level Anchorage Center
11:08PM 59.7000 -166.4667 255° West 480 552 30,000  Level Anchorage Center
11:09PM 59.6500 -166.7167 248° West 480 552 30,000  Level Anchorage Center
11:10PM 59.6000 -166.9667 249° West 480 552 30,000  Level Anchorage Center
11:11PM 59.5667 -167.2333 256° West 480 552 30,000  Level Anchorage Center
11:12PM 59.5167 -167.4833 249° West 480 552 30,000  Level Anchorage Center
11:13PM 59.4667 -167.7333 249° West 480 552 30,000  Level Anchorage Center
11:14PM 59.4167 -167.9833 249° West 490 564 30,000  Level Anchorage Center
11:15PM 59.3833 -168.2167 254° West 480 552 30,000  Level Anchorage Center
11:16PM 59.3333 -168.4667 249° West 480 552 30,000  Level Anchorage Center
11:17PM 59.2833 -168.7167 249° West 480 552 30,000  Level Anchorage Center
11:18PM 59.2333 -168.9667 249° West 490 564 30,000  Level Anchorage Center
11:19PM 59.1833 -169.2167 249° West 490 564 30,000  Level Anchorage Center
11:20PM 59.1333 -169.4833 250° West 490 564 30,000  Level Anchorage Center
11:21PM 59.0833 -169.7333 249° West 500 575 30,000  Level Anchorage Center
11:22PM 59.0333 -169.9667 247° West 480 552 30,000  Level Anchorage Center
11:23PM 58.9833 -170.2167 249° West 490 564 30,000  Level Anchorage Center
11:24PM 58.9333 -170.4667 249° West 490 564 30,000  Level Anchorage Center
11:25PM 58.8833 -170.7167 249° West 490 564 30,000  Level Anchorage Center
11:26PM 58.8333 -170.9500 248° West 480 552 30,000  Level Anchorage Center
11:27PM 58.7833 -171.1833 248° West 480 552 30,000  Level Anchorage Center
11:28PM 58.7333 -171.4167 248° West 480 552 30,000  Level Anchorage Center
11:29PM 58.6833 -171.6500 248° West 470 541 30,000  Level Anchorage Center
11:30PM 58.6333 -171.9000 249° West 470 541 30,000  Level Anchorage Center
11:31PM 58.5833 -172.1333 248° West 470 541 30,000  Level Anchorage Center
11:32PM 58.5333 -172.3667 248° West 470 541 30,000  Level Anchorage Center
11:33PM 58.4833 -172.6000 248° West 470 541 30,000  Level Anchorage Center
11:34PM 58.4333 -172.8333 248° West 470 541 30,000  Level Anchorage Center
11:35PM 58.3833 -173.0500 246° West 470 541 30,000  Level Anchorage Center
11:36PM 58.3333 -173.2833 248° West 470 541 30,000  Level Anchorage Center
11:37PM 58.2833 -173.5167 248° West 460 529 30,000  Level Anchorage Center
11:38PM 58.2333 -173.7500 248° West 470 541 30,000  Level Anchorage Center
11:39PM 58.1833 -173.9833 248° West 460 529 30,000  Level Anchorage Center
11:40PM 58.1500 -174.2000 254° West 450 518 30,000  Level Anchorage Center
11:41PM 58.0833 -174.4167 240° Southwest 460 529 30,000  Level Anchorage Center
11:42PM 58.0333 -174.6500 248° West 460 529 30,000  Level Anchorage Center
11:43PM 57.9833 -174.8667 247° West 460 529 30,000  Level Anchorage Center
11:44PM 57.9333 -175.1000 248° West 450 518 30,000  Level Anchorage Center
11:45PM 57.8833 -175.3167 247° West 460 529 30,000  Level Anchorage Center
11:46PM 57.8333 -175.5333 247° West 460 529 30,000  Level Anchorage Center
11:47PM 57.7833 -175.7667 248° West 460 529 30,000  Level Anchorage Center
11:50PM 57.6977 -176.1263 246° West  Level FlightAware Approximate
11:57PM 57.3348 -177.5551 244° Southwest  Level FlightAware Approximate
11:58PM 57.2808 -177.7561 244° Southwest  Level FlightAware Approximate
11:59PM 57.2265 -177.9565 243° Southwest  Level FlightAware Approximate
12:00AM 57.1719 -178.1563 243° Southwest  Level FlightAware Approximate
12:01AM 57.1169 -178.3556 243° Southwest  Level FlightAware Approximate
12:02AM 57.0627 -178.5552 244° Southwest  Level FlightAware Approximate
12:02AM 56.9333 -179.0833 243° Southwest 461 531 30,000  Level Anchorage Center
12:03AM 57.0087 -178.7547 244° Southwest  Level FlightAware Approximate
12:04AM 56.9543 -178.9536 243° Southwest  Level FlightAware Approximate
12:05AM 56.8996 -179.1519 243° Southwest  Level FlightAware Approximate
12:06AM 56.8446 -179.3497 243° Southwest  Level FlightAware Approximate
12:06AM 56.6833 -179.9500 242° Southwest 463 533 30,000  Level Anchorage Center
12:07AM 56.7893 -179.5468 243° Southwest  Level FlightAware Approximate
12:08AM 56.5776 179.6699 242° Southwest 461 531 30,000  Level FlightAware Transoceanic
12:09AM 56.5171 179.4645 242° Southwest 461 531 30,000  Level FlightAware Transoceanic
12:10AM 56.4563 179.2596 242° Southwest 461 531 30,000  Level FlightAware Transoceanic
12:11AM 56.3951 179.0555 241° Southwest 461 531 30,000  Level FlightAware Transoceanic
12:12AM 56.3336 178.8519 241° Southwest 461 531 30,000  Level FlightAware Transoceanic
12:13AM 56.3114 178.7921 241° Southwest 463 533 30,000  Level FlightAware Transoceanic
12:14AM 56.2482 178.5848 241° Southwest 463 533 30,000  Level FlightAware Transoceanic
12:15AM 56.1846 178.3783 241° Southwest 463 533 30,000  Level FlightAware Transoceanic
12:16AM 56.1207 178.1724 241° Southwest 463 533 30,000  Level FlightAware Transoceanic
12:17AM 56.0565 177.9672 241° Southwest 463 533 30,000  Level FlightAware Transoceanic
12:17AM 56.0667 177.9833 241° Southwest 468 539 30,000  Level Anchorage Center
12:18AM 55.9919 177.7627 240° Southwest 463 533 30,000  Level FlightAware Transoceanic
12:19AM 55.9270 177.5589 240° Southwest 463 533 30,000  Level FlightAware Transoceanic
12:20AM 55.8618 177.3557 240° Southwest 463 533 30,000  Level FlightAware Transoceanic
12:21AM 55.7962 177.1532 240° Southwest 463 533 30,000  Level FlightAware Transoceanic
12:21AM 55.7500 177.0167 239° Southwest 470 541 30,000  Level Anchorage Center
12:22AM 55.7302 176.9515 240° Southwest 463 533 30,000  Level FlightAware Transoceanic
12:22AM 55.6833 176.8333 237° Southwest 470 541 30,000  Level Anchorage Center
12:23AM 55.6720 176.7625 240° Southwest 468 539 30,000  Level FlightAware Transoceanic
12:23AM 55.6167 176.6167 241° Southwest 470 541 30,000  Level Anchorage Center
12:24AM 55.6051 176.5615 239° Southwest 468 539 30,000  Level FlightAware Transoceanic
12:24AM 55.5667 176.4500 242° Southwest 470 541 30,000  Level Anchorage Center
12:25AM 55.5378 176.3611 239° Southwest 468 539 30,000  Level FlightAware Transoceanic
12:25AM 55.4833 176.2333 236° Southwest 460 529 30,000  Level Anchorage Center
12:26AM 55.4702 176.1614 239° Southwest 468 539 30,000  Level FlightAware Transoceanic
12:26AM 55.4333 176.0667 242° Southwest 470 541 30,000  Level Anchorage Center
12:27AM 55.4023 175.9624 239° Southwest 468 539 30,000  Level FlightAware Transoceanic
12:27AM 55.3500 175.8500 236° Southwest 470 541 30,000  Level Anchorage Center
12:28AM 55.3000 175.6667 244° Southwest 470 541 30,000  Level Anchorage Center
12:29AM 55.2167 175.4500 236° Southwest 480 552 30,000  Level Anchorage Center
12:30AM 55.1500 175.2333 242° Southwest 470 541 30,000  Level Anchorage Center
12:31AM 55.0833 175.0667 235° Southwest 480 552 30,000  Level Anchorage Center
12:32AM 55.0167 174.8500 242° Southwest 480 552 30,000  Level Anchorage Center
12:33AM 54.9500 174.6833 235° Southwest 480 552 30,000  Level Anchorage Center
12:34AM 54.8667 174.4667 236° Southwest 470 541 30,000  Level Anchorage Center
12:35AM 54.8167 174.3000 243° Southwest 470 541 30,000  Level Anchorage Center
12:36AM 54.7333 174.1000 234° Southwest 470 541 30,000  Level Anchorage Center
12:37AM 54.6500 173.8833 236° Southwest 470 541 30,000  Level Anchorage Center
12:38AM 54.6000 173.7167 243° Southwest 470 541 30,000  Level Anchorage Center
12:39AM 54.5167 173.5167 234° Southwest 480 552 30,000  Level Anchorage Center
12:40AM 54.4500 173.3500 236° Southwest 470 541 30,000  Level Anchorage Center
12:41AM 54.3833 173.1333 242° Southwest 470 541 30,000  Level Anchorage Center
12:42AM 54.3167 172.9833 233° Southwest 470 541 30,000  Level Anchorage Center
12:43AM 54.2333 172.7667 237° Southwest 490 564 30,000  Level Anchorage Center
12:44AM 54.1500 172.5667 235° Southwest 480 552 30,000  Level Anchorage Center
12:45AM 54.0833 172.4167 233° Southwest 470 541 30,000  Level Anchorage Center
12:46AM 54.0000 172.2000 237° Southwest 490 564 30,000  Level Anchorage Center
12:47AM 53.9333 172.0500 233° Southwest 480 552 30,000  Level Anchorage Center
12:48AM 53.8500 171.8500 235° Southwest 480 552 30,000  Level Anchorage Center
12:49AM 53.7833 171.6833 236° Southwest 470 541 30,000  Level Anchorage Center
12:50AM 53.7000 171.4833 235° Southwest 480 552 30,000  Level Anchorage Center
12:51AM 53.6333 171.3333 233° Southwest 470 541 30,000  Level Anchorage Center
12:52AM 53.5500 171.1333 235° Southwest 490 564 30,000  Level Anchorage Center
12:53AM 53.4667 170.9333 235° Southwest 490 564 30,000  Level Anchorage Center
12:54AM 53.3833 170.7667 230° Southwest 490 564 30,000  Level Anchorage Center
12:55AM 53.3000 170.5833 233° Southwest 480 552 30,000  Level Anchorage Center
12:56AM 53.2333 170.4167 236° Southwest 480 552 30,000  Level Anchorage Center
12:57AM 53.1500 170.2167 235° Southwest 480 552 30,000  Level Anchorage Center
12:58AM 53.0667 170.0667 227° Southwest 490 564 30,000  Level Anchorage Center
12:59AM 52.9833 169.8833 233° Southwest 470 541 30,000  Level Anchorage Center
01:00AM 52.9167 169.6667 243° Southwest 470 541 30,000  Level Anchorage Center
01:01AM 52.8667 169.5167 241° Southwest 460 529 30,000  Level Anchorage Center
01:02AM 52.8000 169.3000 243° Southwest 450 518 30,000  Level Anchorage Center
01:03AM 52.7500 169.1333 244° Southwest 470 541 30,000  Level Anchorage Center
01:04AM 52.6667 168.9500 233° Southwest 450 518 30,000  Level Anchorage Center
01:05AM 52.6167 168.7833 244° Southwest 460 529 30,000  Level Anchorage Center
01:06AM 52.5500 168.5833 241° Southwest 440 506 30,000  Level Anchorage Center
01:07AM 52.4833 168.3833 241° Southwest 460 529 30,000 480 Level Anchorage Center
01:08AM 52.4167 168.2333 234° Southwest 460 529 31,000 480 Climbing Anchorage Center
01:09AM 52.3500 168.0500 239° Southwest 430 495 31,000  Level Anchorage Center
01:11AM 52.2333 167.7000 242° Southwest 450 518 31,000  Level Anchorage Center
01:12AM 52.1833 167.5500 242° Southwest 440 506 31,000  Level Anchorage Center
01:15AM 52.1126 167.3587 239° Southwest  Level FlightAware Approximate
01:22AM 51.6687 166.1903 239° Southwest  Level FlightAware Approximate
01:23AM 51.6043 166.0253 238° Southwest  Level FlightAware Approximate
01:24AM 51.5397 165.8607 238° Southwest  Level FlightAware Approximate
01:25AM 51.4749 165.6967 238° Southwest  Level FlightAware Approximate
01:25AM 51.4333 165.5500 238° Southwest 448 516 31,000  Level Anchorage Center
01:26AM 51.4101 165.5329 238° Southwest  Level FlightAware Approximate
01:26AM 51.2833 165.1833 237° Southwest 445 512 31,000  Level Anchorage Center
01:27AM 51.3463 165.3681 238° Southwest  Level FlightAware Approximate
01:28AM 51.2824 165.2039 238° Southwest  Level FlightAware Approximate
01:29AM 51.2182 165.0401 238° Southwest  Level FlightAware Approximate
01:30AM 51.1538 164.8768 238° Southwest  Level FlightAware Approximate
01:31AM 50.9812 164.4295 237° Southwest 448 516 31,000  Level FlightAware Transoceanic
01:31AM 50.9500 164.3833 237° Southwest 455 524 31,000  Level Anchorage Center
01:32AM 50.9157 164.2712 237° Southwest 448 516 31,000  Level FlightAware Transoceanic
01:33AM 50.8856 164.2069 237° Southwest 445 512 31,000  Level FlightAware Transoceanic
01:34AM 50.8185 164.0458 237° Southwest 445 512 31,000  Level FlightAware Transoceanic
01:35AM 50.7512 163.8852 236° Southwest 445 512 31,000  Level FlightAware Transoceanic
01:36AM 50.6836 163.7250 236° Southwest 445 512 31,000  Level FlightAware Transoceanic
01:37AM 50.5461 163.4176 236° Southwest 455 524 31,000  Level FlightAware Transoceanic
01:38AM 50.4781 163.2583 236° Southwest 455 524 31,000  Level FlightAware Transoceanic
01:39AM 50.4098 163.0994 236° Southwest 455 524 31,000  Level FlightAware Transoceanic
01:40AM 50.3412 162.9410 236° Southwest 455 524 31,000  Level FlightAware Transoceanic
01:41AM 50.2725 162.7830 236° Southwest 455 524 31,000  Level FlightAware Transoceanic
01:42AM 50.2036 162.6255 236° Southwest 455 524 31,000  Level FlightAware Transoceanic
01:43AM 50.1344 162.4685 235° Southwest 455 524 31,000  Level FlightAware Transoceanic
01:44AM 50.0651 162.3119 235° Southwest 455 524 31,000  Level FlightAware Transoceanic
01:45AM 49.9955 162.1557 235° Southwest 455 524 31,000  Level FlightAware Transoceanic
01:46AM 49.9257 162.0000 235° Southwest 455 524 31,000  Level FlightAware Transoceanic
01:47AM 49.8557 161.8448 235° Southwest 455 524 31,000  Level FlightAware Transoceanic
01:48AM 49.7855 161.6900 235° Southwest 455 524 31,000  Level FlightAware Transoceanic
01:49AM 49.7151 161.5357 235° Southwest 455 524 31,000  Level FlightAware Transoceanic
01:50AM 49.6445 161.3818 235° Southwest 455 524 31,000  Level FlightAware Transoceanic
01:51AM 49.5737 161.2283 234° Southwest 455 524 31,000  Level FlightAware Transoceanic
01:52AM 49.5027 161.0753 234° Southwest 455 524 31,000  Level FlightAware Transoceanic
01:52AM 49.4833 161.0333 234° Southwest 456 525 31,000  Level Anchorage Center
01:53AM 49.4315 160.9228 234° Southwest 455 524 31,000  Level FlightAware Transoceanic
01:53AM 49.4000 160.8667 235° Southwest 455 524 31,000  Level Anchorage Center
01:54AM 49.3600 160.7706 234° Southwest 455 524 31,000  Level FlightAware Transoceanic
01:55AM 49.2884 160.6190 234° Southwest 455 524 31,000  Level FlightAware Transoceanic
01:56AM 49.2166 160.4677 234° Southwest 455 524 31,000  Level FlightAware Transoceanic
01:57AM 49.1446 160.3169 234° Southwest 455 524 31,000  Level FlightAware Transoceanic
01:58AM 49.0696 160.1607 234° Southwest 456 525 31,000  Level FlightAware Transoceanic
01:59AM 49.0000 160.0167 233° Southwest 455 524 31,000  Level FlightAware Transoceanic
02:00AM 48.9269 159.8675 233° Southwest 455 524 31,000  Level FlightAware Transoceanic
02:01AM 48.8535 159.7187 233° Southwest 455 524 31,000  Level FlightAware Transoceanic
02:02AM 48.7800 159.5704 233° Southwest 455 524 31,000  Level FlightAware Transoceanic
02:03AM 48.7063 159.4225 233° Southwest 455 524 31,000  Level FlightAware Transoceanic
02:04AM 48.6324 159.2751 233° Southwest 455 524 31,000  Level FlightAware Transoceanic
02:05AM 48.5583 159.1280 233° Southwest 455 524 31,000  Level FlightAware Transoceanic
02:06AM 48.4841 158.9815 233° Southwest 455 524 31,000  Level FlightAware Transoceanic
02:07AM 48.4096 158.8353 232° Southwest 455 524 31,000  Level FlightAware Transoceanic
02:08AM 48.3350 158.6896 232° Southwest 455 524 31,000  Level FlightAware Transoceanic
02:09AM 48.2602 158.5443 232° Southwest 455 524 31,000  Level FlightAware Transoceanic
02:10AM 48.1852 158.3994 232° Southwest 455 524 31,000  Level FlightAware Transoceanic
02:11AM 48.1100 158.2549 232° Southwest 455 524 31,000  Level FlightAware Transoceanic
02:12AM 48.0346 158.1109 232° Southwest 455 524 31,000  Level FlightAware Transoceanic
02:13AM 47.9590 157.9673 232° Southwest 455 524 31,000  Level FlightAware Transoceanic
02:14AM 47.8833 157.8241 232° Southwest 455 524 31,000  Level FlightAware Transoceanic
02:15AM 47.8074 157.6813 232° Southwest 455 524 31,000  Level FlightAware Transoceanic
02:16AM 47.7313 157.5390 231° Southwest 455 524 31,000  Level FlightAware Transoceanic
02:17AM 47.6551 157.3970 231° Southwest 455 524 31,000  Level FlightAware Transoceanic
02:18AM 47.5787 157.2555 231° Southwest 455 524 31,000  Level FlightAware Transoceanic
02:19AM 47.5021 157.1144 231° Southwest 455 524 31,000  Level FlightAware Transoceanic
02:20AM 47.4253 156.9737 231° Southwest 455 524 31,000  Level FlightAware Transoceanic
02:21AM 47.3483 156.8334 231° Southwest 455 524 31,000  Level FlightAware Transoceanic
02:22AM 47.2712 156.6935 231° Southwest 455 524 31,000  Level FlightAware Transoceanic
02:23AM 47.1939 156.5540 231° Southwest 455 524 31,000  Level FlightAware Transoceanic
02:24AM 47.1165 156.4149 231° Southwest 455 524 31,000  Level FlightAware Transoceanic
02:25AM 47.0388 156.2763 231° Southwest 455 524 31,000  Level FlightAware Transoceanic
02:26AM 46.9611 156.1380 230° Southwest 455 524 31,000  Level FlightAware Transoceanic
02:27AM 46.8831 156.0002 230° Southwest 455 524 31,000  Level FlightAware Transoceanic
02:28AM 46.8050 155.8627 230° Southwest 455 524 31,000  Level FlightAware Transoceanic
02:29AM 46.7267 155.7256 230° Southwest 455 524 31,000  Level FlightAware Transoceanic
02:30AM 46.6483 155.5890 230° Southwest 455 524 31,000  Level FlightAware Transoceanic
02:31AM 46.5696 155.4527 230° Southwest 455 524 31,000  Level FlightAware Transoceanic
02:32AM 46.4909 155.3168 230° Southwest 455 524 31,000  Level FlightAware Transoceanic
02:33AM 46.4119 155.1814 230° Southwest 455 524 31,000  Level FlightAware Transoceanic
02:34AM 46.3328 155.0463 230° Southwest 455 524 31,000  Level FlightAware Transoceanic
02:35AM 46.2536 154.9116 230° Southwest 455 524 31,000  Level FlightAware Transoceanic
02:36AM 46.1742 154.7773 229° Southwest 455 524 31,000  Level FlightAware Transoceanic
02:37AM 46.0946 154.6434 229° Southwest 455 524 31,000  Level FlightAware Transoceanic
02:38AM 46.0149 154.5098 229° Southwest 455 524 31,000  Level FlightAware Transoceanic
02:39AM 45.9350 154.3767 229° Southwest 455 524 31,000  Level FlightAware Transoceanic
02:40AM 45.8550 154.2439 229° Southwest 455 524 31,000  Level FlightAware Transoceanic
02:41AM 45.7748 154.1115 229° Southwest 455 524 31,000  Level FlightAware Transoceanic
02:42AM 45.6945 153.9795 229° Southwest 455 524 31,000  Level FlightAware Transoceanic
02:43AM 45.6140 153.8479 229° Southwest 455 524 31,000  Level FlightAware Transoceanic
02:44AM 45.5261 153.7293 223° Southwest  Level FlightAware Approximate
02:45AM 45.4380 153.6111 223° Southwest  Level FlightAware Approximate
02:46AM 45.4453 153.6024 228° Southwest  Level FlightAware Approximate
02:47AM 45.3647 153.4741 228° Southwest  Level FlightAware Approximate
02:48AM 45.2839 153.3460 228° Southwest  Level FlightAware Approximate
02:49AM 45.2030 153.2184 228° Southwest  Level FlightAware Approximate
02:50AM 45.1220 153.0911 228° Southwest  Level FlightAware Approximate
02:51AM 45.0408 152.9642 228° Southwest  Level FlightAware Approximate
02:52AM 44.9595 152.8376 228° Southwest  Level FlightAware Approximate
02:53AM 44.8780 152.7114 228° Southwest  Level FlightAware Approximate
02:54AM 44.7964 152.5855 228° Southwest  Level FlightAware Approximate
02:55AM 44.7147 152.4600 228° Southwest  Level FlightAware Approximate
02:56AM 44.6328 152.3349 227° Southwest  Level FlightAware Approximate
02:57AM 44.5508 152.2101 227° Southwest  Level FlightAware Approximate
02:58AM 44.4687 152.0856 227° Southwest  Level FlightAware Approximate
02:59AM 44.3864 151.9615 227° Southwest  Level FlightAware Approximate
03:00AM 44.3040 151.8378 227° Southwest  Level FlightAware Approximate
03:01AM 44.2215 151.7144 227° Southwest  Level FlightAware Approximate
03:02AM 44.1388 151.5913 227° Southwest  Level FlightAware Approximate
03:03AM 44.0560 151.4686 227° Southwest  Level FlightAware Approximate
03:04AM 43.9730 151.3463 227° Southwest  Level FlightAware Approximate
03:05AM 43.8899 151.2242 227° Southwest  Level FlightAware Approximate
03:06AM 43.8068 151.1026 227° Southwest  Level FlightAware Approximate
03:07AM 43.7234 150.9812 226° Southwest  Level FlightAware Approximate
03:08AM 43.6400 150.8602 226° Southwest  Level FlightAware Approximate
03:09AM 43.5564 150.7395 226° Southwest  Level FlightAware Approximate
03:10AM 43.4727 150.6192 226° Southwest  Level FlightAware Approximate
03:11AM 43.3889 150.4992 226° Southwest  Level FlightAware Approximate
03:12AM 43.3049 150.3795 226° Southwest  Level FlightAware Approximate
03:13AM 43.2208 150.2602 226° Southwest  Level FlightAware Approximate
03:14AM 43.1366 150.1412 226° Southwest  Level FlightAware Approximate
03:14AM 42.9810 149.9030 226° Southwest 426 490 32,000  Level FlightAware
03:15AM 43.0523 150.0225 226° Southwest  Level FlightAware Approximate
03:15AM 42.9340 149.8360 226° Southwest 426 490 32,000  Level FlightAware
03:15AM 42.8920 149.7770 226° Southwest 426 490 32,000  Level FlightAware
03:16AM 42.8320 149.6960 225° Southwest 424 488 32,000  Level FlightAware
03:17AM 42.7600 149.5950 226° Southwest 424 488 32,000  Level FlightAware
03:18AM 42.6990 149.5110 225° Southwest 424 488 32,000  Level FlightAware
03:18AM 42.6510 149.4450 225° Southwest 423 487 32,000  Level FlightAware
03:19AM 42.5950 149.3670 226° Southwest 422 486 32,000  Level FlightAware
03:19AM 42.5470 149.3020 225° Southwest 422 486 32,000  Level FlightAware
03:20AM 42.5000 149.2380 225° Southwest 422 486 32,000  Level FlightAware
03:21AM 42.4370 149.1530 225° Southwest 423 487 32,000  Level FlightAware
03:21AM 42.3770 149.0710 225° Southwest 423 487 32,000  Level FlightAware
03:22AM 42.3300 149.0060 226° Southwest 422 486 32,000  Level FlightAware
03:23AM 42.2840 148.9450 224° Southwest 422 486 32,000  Level FlightAware
03:23AM 42.2320 148.8740 225° Southwest 422 486 32,000  Level FlightAware
03:24AM 42.1830 148.8080 225° Southwest 421 484 32,000  Level FlightAware
03:24AM 42.1340 148.7420 225° Southwest 421 484 32,000  Level FlightAware
03:25AM 42.0850 148.6770 225° Southwest 420 483 32,000  Level FlightAware
03:25AM 42.0400 148.6150 226° Southwest 420 483 32,000  Level FlightAware
03:26AM 41.9720 148.5250 225° Southwest 419 482 32,000  Level FlightAware
03:27AM 41.9180 148.4530 225° Southwest 418 481 32,000  Level FlightAware
03:28AM 41.8630 148.3810 224° Southwest 425 489 32,000  Level FlightAware
03:28AM 41.8140 148.3160 225° Southwest 426 490 32,000  Level FlightAware
03:29AM 41.7640 148.2500 225° Southwest 427 491 32,000  Level FlightAware
03:30AM 41.7010 148.1670 225° Southwest 427 491 32,000  Level FlightAware
03:30AM 41.6440 148.0940 224° Southwest 427 491 32,000  Level FlightAware
03:31AM 41.5950 148.0300 224° Southwest 427 491 32,000  Level FlightAware
03:31AM 41.5460 147.9680 223° Southwest 427 491 32,000  Level FlightAware
03:32AM 41.4950 147.9020 224° Southwest 426 490 32,000  Level FlightAware
03:32AM 41.4450 147.8390 223° Southwest 427 491 32,000  Level FlightAware
03:33AM 41.3960 147.7750 224° Southwest 427 491 32,000  Level FlightAware
03:34AM 41.3320 147.6940 224° Southwest 427 491 32,000  Level FlightAware
03:34AM 41.2890 147.6400 223° Southwest 427 491 32,000  Level FlightAware
03:35AM 41.2390 147.5760 224° Southwest 425 489 32,000  Level FlightAware
03:36AM 41.1810 147.5030 223° Southwest 424 488 32,000  Level FlightAware
03:36AM 41.1400 147.4510 224° Southwest 423 487 32,000  Level FlightAware
03:37AM 41.0890 147.3870 223° Southwest 424 488 32,000  Level FlightAware
03:38AM 41.0120 147.2910 223° Southwest 425 489 32,000  Level FlightAware
03:38AM 40.9610 147.2270 223° Southwest 425 489 32,000  Level FlightAware
03:39AM 40.8960 147.1450 224° Southwest 425 489 32,000  Level FlightAware
03:39AM 40.8470 147.0840 223° Southwest 424 488 32,000  Level FlightAware
03:40AM 40.7970 147.0220 223° Southwest 423 487 32,000  Level FlightAware
03:41AM 40.7470 146.9600 223° Southwest 422 486 32,000  Level FlightAware
03:41AM 40.6980 146.8990 223° Southwest 422 486 32,000  Level FlightAware
03:42AM 40.6480 146.8370 223° Southwest 421 484 32,000  Level FlightAware
03:42AM 40.5980 146.7760 223° Southwest 422 486 32,000  Level FlightAware
03:43AM 40.5490 146.7160 223° Southwest 422 486 32,000  Level FlightAware
03:44AM 40.4800 146.6310 223° Southwest 423 487 32,000  Level FlightAware
03:44AM 40.4320 146.5730 223° Southwest 423 487 32,000  Level FlightAware
03:45AM 40.3890 146.5190 224° Southwest 423 487 32,000  Level FlightAware
03:46AM 40.3210 146.4370 223° Southwest 420 483 32,000  Level FlightAware
03:46AM 40.2720 146.3770 223° Southwest 419 482 32,000  Level FlightAware
03:47AM 40.2200 146.3140 223° Southwest 423 487 32,000  Level FlightAware
03:47AM 40.1610 146.2430 223° Southwest 421 484 32,000  Level FlightAware
03:48AM 40.1070 146.1790 222° Southwest 421 484 32,000  Level FlightAware
03:49AM 40.0630 146.1270 222° Southwest 421 484 32,000  Level FlightAware
03:49AM 40.0180 146.0730 223° Southwest 421 484 32,000  Level FlightAware
03:50AM 39.9730 146.0210 222° Southwest 421 484 32,000  Level FlightAware
03:51AM 39.9290 145.9690 222° Southwest 421 484 32,000  Level FlightAware
03:51AM 39.8850 145.9170 222° Southwest 421 484 32,000  Level FlightAware
03:52AM 39.8390 145.8640 222° Southwest 421 484 32,000  Level FlightAware
03:52AM 39.7940 145.8100 223° Southwest 421 484 32,000  Level FlightAware
03:53AM 39.7490 145.7590 221° Southwest 421 484 32,000  Level FlightAware
03:54AM 39.7050 145.7070 222° Southwest 421 484 32,000  Level FlightAware
03:54AM 39.6590 145.6530 222° Southwest 421 484 32,000  Level FlightAware
03:55AM 39.6150 145.6020 222° Southwest 421 484 32,000  Level FlightAware
03:55AM 39.5710 145.5500 222° Southwest 421 484 32,000  Level FlightAware
03:56AM 39.5270 145.4980 222° Southwest 421 484 32,000  Level FlightAware
03:57AM 39.4820 145.4470 221° Southwest 421 484 32,000  Level FlightAware
03:57AM 39.4370 145.3930 223° Southwest 421 484 32,000  Level FlightAware
03:58AM 39.2590 145.1740 224° Southwest 421 484 32,000  Level FlightAware
03:58AM 39.2080 145.1140 222° Southwest 422 486 32,000  Level FlightAware
03:59AM 39.1610 145.0590 222° Southwest 423 487 32,000  Level FlightAware
04:00AM 39.0800 144.9650 222° Southwest 423 487 32,000  Level FlightAware
04:01AM 39.0260 144.9020 222° Southwest 424 488 32,000  Level FlightAware
04:01AM 38.9630 144.8300 222° Southwest 425 489 32,000  Level FlightAware
04:02AM 38.9080 144.7670 222° Southwest 421 484 32,000 780 Level FlightAware
04:03AM 38.8470 144.6960 222° Southwest 428 493 33,000 1,320 Climbing FlightAware
04:03AM 38.8030 144.6370 226° Southwest 426 490 33,700 840 Climbing FlightAware
04:04AM 38.7580 144.5630 232° Southwest 427 491 34,000 180 Climbing FlightAware
04:05AM 38.7040 144.4730 232° Southwest 426 490 34,000  Level FlightAware
04:05AM 38.6540 144.3880 233° Southwest 425 489 34,000  Level FlightAware
04:06AM 38.6170 144.3270 232° Southwest 425 489 34,000  Level FlightAware
04:06AM 38.5660 144.2430 232° Southwest 425 489 34,000  Level FlightAware
04:07AM 38.5320 144.1860 233° Southwest 425 489 34,000  Level FlightAware
04:08AM 38.4880 144.1130 232° Southwest 425 489 34,000  Level FlightAware
04:08AM 38.4460 144.0430 233° Southwest 424 488 34,000  Level FlightAware
04:09AM 38.4040 143.9740 232° Southwest 423 487 34,000  Level FlightAware
04:09AM 38.3630 143.9060 232° Southwest 423 487 34,000  Level FlightAware
04:10AM 38.3200 143.8360 232° Southwest 422 486 34,000  Level FlightAware
04:10AM 38.2790 143.7680 232° Southwest 422 486 34,000  Level FlightAware
04:11AM 38.2540 143.7290 231° Southwest 422 486 34,000  Level FlightAware
04:12AM 38.2010 143.6410 233° Southwest 421 484 34,000  Level FlightAware
04:12AM 38.1580 143.5720 232° Southwest 421 484 34,000  Level FlightAware
04:13AM 38.1100 143.4930 232° Southwest 421 484 34,000  Level FlightAware
04:13AM 38.0740 143.4350 232° Southwest 421 484 34,000  Level FlightAware
04:14AM 38.0340 143.3690 232° Southwest 422 486 34,000  Level FlightAware
04:14AM 37.9920 143.3020 232° Southwest 422 486 34,000  Level FlightAware
04:15AM 37.9500 143.2340 232° Southwest 421 484 34,000  Level FlightAware
04:16AM 37.9040 143.1610 231° Southwest 422 486 34,000  Level FlightAware
04:16AM 37.8640 143.0980 231° Southwest 421 484 34,000  Level FlightAware
04:17AM 37.8180 143.0240 232° Southwest 421 484 34,000  Level FlightAware
04:18AM 37.7680 142.9450 231° Southwest 417 480 34,000  Level FlightAware
04:18AM 37.7250 142.8780 231° Southwest 421 484 34,000  Level FlightAware
04:19AM 37.6830 142.8110 232° Southwest 421 484 34,000  Level FlightAware
04:19AM 37.6400 142.7430 231° Southwest 420 483 34,000  Level FlightAware
04:20AM 37.5980 142.6770 231° Southwest 418 481 34,000  Level FlightAware
04:20AM 37.5560 142.6100 232° Southwest 417 480 34,000  Level FlightAware
04:21AM 37.5140 142.5430 232° Southwest 417 480 34,000  Level FlightAware
04:22AM 37.4780 142.4740 237° Southwest 415 478 34,000  Level FlightAware
04:22AM 37.4510 142.3950 247° West 420 483 34,000  Level FlightAware
04:23AM 37.4250 142.3150 248° West 416 479 34,000  Level FlightAware
04:23AM 37.3990 142.2350 248° West 418 481 34,000  Level FlightAware
04:24AM 37.3700 142.1580 245° Southwest 414 476 34,000  Level FlightAware
04:25AM 37.3390 142.0830 243° Southwest 414 476 34,000  Level FlightAware
04:25AM 37.3050 141.9950 244° Southwest 414 476 34,000  Level FlightAware
04:26AM 37.2750 141.9190 244° Southwest 412 474 34,000  Level FlightAware
04:26AM 37.2460 141.8440 244° Southwest 415 478 34,000  Level FlightAware
04:27AM 37.2160 141.7680 244° Southwest 413 475 34,000  Level FlightAware
04:28AM 37.1870 141.6930 244° Southwest 412 474 34,000  Level FlightAware
04:28AM 37.1560 141.6150 244° Southwest 409 471 34,000  Level FlightAware
04:29AM 37.1260 141.5410 243° Southwest 408 470 34,000  Level FlightAware
04:29AM 37.0960 141.4650 244° Southwest 409 471 34,000  Level FlightAware
04:30AM 37.0660 141.3900 243° Southwest 411 473 34,000  Level FlightAware
04:30AM 37.0370 141.3160 244° Southwest 409 471 34,000  Level FlightAware
04:31AM 37.0070 141.2400 244° Southwest 410 472 34,000  Level FlightAware
04:32AM 36.9770 141.1670 243° Southwest 408 470 34,000  Level FlightAware
04:32AM 36.9480 141.0930 244° Southwest 408 470 34,000  Level FlightAware
04:33AM 36.9180 141.0190 243° Southwest 407 468 34,000  Level FlightAware
04:33AM 36.8870 140.9440 243° Southwest 407 468 34,000  Level FlightAware
04:34AM 36.8570 140.8690 243° Southwest 406 467 34,000  Level FlightAware
04:35AM 36.8270 140.7960 243° Southwest 406 467 34,000  Level FlightAware
04:35AM 36.7970 140.7220 243° Southwest 406 467 34,000  Level FlightAware
04:36AM 36.7670 140.6490 243° Southwest 405 466 34,000  Level FlightAware
04:36AM 36.7330 140.5660 243° Southwest 405 466 34,000  Level FlightAware
04:37AM 36.7070 140.5020 243° Southwest 406 467 34,000  Level FlightAware
04:37AM 36.6770 140.4290 243° Southwest 405 466 34,000  Level FlightAware
04:38AM 36.6460 140.3550 242° Southwest 404 465 34,000  Level FlightAware
04:39AM 36.6160 140.2830 243° Southwest 403 464 34,000  Level FlightAware
04:39AM 36.5860 140.2090 243° Southwest 405 466 34,000  Level FlightAware
04:40AM 36.5560 140.1370 243° Southwest 403 464 34,000  Level FlightAware
04:40AM 36.5250 140.0630 242° Southwest 402 463 34,000  Level FlightAware
04:41AM 36.4950 139.9920 242° Southwest 400 460 34,000  Level FlightAware
04:42AM 36.4640 139.9190 242° Southwest 400 460 34,000  Level FlightAware
04:42AM 36.4340 139.8470 243° Southwest 400 460 34,000  Level FlightAware
04:43AM 36.4040 139.7750 243° Southwest 401 461 34,000  Level FlightAware
04:43AM 36.3710 139.6970 242° Southwest 404 465 34,000  Level FlightAware
04:44AM 36.3390 139.6230 242° Southwest 404 465 34,000  Level FlightAware
04:44AM 36.3120 139.5570 243° Southwest 404 465 34,000  Level FlightAware
04:45AM 36.2830 139.4910 241° Southwest 404 465 34,000  Level FlightAware
04:46AM 36.2510 139.4140 243° Southwest 404 465 34,000  Level FlightAware
04:46AM 36.2200 139.3430 242° Southwest 403 464 34,000  Level FlightAware
04:47AM 36.1880 139.2670 242° Southwest 403 464 34,000  Level FlightAware
04:47AM 36.1570 139.1960 242° Southwest 403 464 34,000  Level FlightAware
04:48AM 36.1300 139.1310 243° Southwest 402 463 34,000  Level FlightAware
04:49AM 36.0980 139.0570 242° Southwest 400 460 34,000  Level FlightAware
04:49AM 36.0670 138.9850 242° Southwest 401 461 34,000  Level FlightAware
04:50AM 36.0370 138.9160 242° Southwest 400 460 34,000  Level FlightAware
04:50AM 36.0060 138.8440 242° Southwest 402 463 34,000  Level FlightAware
04:51AM 35.9750 138.7740 241° Southwest 403 464 34,000  Level FlightAware
04:52AM 35.9440 138.7020 242° Southwest 404 465 34,000  Level FlightAware
04:52AM 35.9130 138.6300 242° Southwest 406 467 34,000  Level FlightAware
04:53AM 35.8850 138.5670 241° Southwest 405 466 34,000  Level FlightAware
04:53AM 35.8560 138.4930 244° Southwest 406 467 34,000  Level FlightAware
04:54AM 35.8260 138.4130 245° Southwest 406 467 34,000  Level FlightAware
04:54AM 35.7970 138.3400 244° Southwest 405 466 34,000  Level FlightAware
04:55AM 35.7690 138.2710 243° Southwest 403 464 34,000  Level FlightAware
04:56AM 35.7390 138.1960 244° Southwest 403 464 34,000  Level FlightAware
04:56AM 35.7120 138.1290 244° Southwest 402 463 34,000  Level FlightAware
04:57AM 35.6770 138.0420 244° Southwest 402 463 34,000  Level FlightAware
04:57AM 35.6490 137.9730 243° Southwest 402 463 34,000  Level FlightAware
04:58AM 35.6150 137.8880 244° Southwest 403 464 34,000  Level FlightAware
04:59AM 35.5860 137.8160 244° Southwest 404 465 34,000  Level FlightAware
04:59AM 35.5590 137.7480 244° Southwest 406 467 34,000  Level FlightAware
05:00AM 35.5310 137.6800 243° Southwest 407 468 34,000  Level FlightAware
05:00AM 35.5020 137.6080 244° Southwest 409 471 34,000  Level FlightAware
05:01AM 35.4680 137.5250 243° Southwest 412 474 34,000  Level FlightAware
05:02AM 35.4460 137.4700 244° Southwest 414 476 34,000  Level FlightAware
05:02AM 35.4070 137.3750 243° Southwest 409 471 34,000  Level FlightAware
05:03AM 35.3760 137.3010 243° Southwest 409 471 34,000  Level FlightAware
05:03AM 35.3460 137.2290 243° Southwest 409 471 34,000  Level FlightAware
05:04AM 35.3200 137.1650 244° Southwest 409 471 34,000  Level FlightAware
05:05AM 35.2860 137.0820 243° Southwest 408 470 34,000  Level FlightAware
05:05AM 35.2600 137.0200 243° Southwest 409 471 34,000  Level FlightAware
05:06AM 35.2320 136.9510 244° Southwest 410 472 34,000  Level FlightAware
05:06AM 35.2000 136.8760 242° Southwest 410 472 34,000  Level FlightAware
05:07AM 35.1700 136.8030 243° Southwest 408 470 34,000  Level FlightAware
05:08AM 35.1350 136.7200 243° Southwest 410 472 34,000  Level FlightAware
05:08AM 35.1050 136.6480 243° Southwest 411 473 34,000  Level FlightAware
05:09AM 35.0800 136.5880 243° Southwest 411 473 34,000  Level FlightAware
05:09AM 35.0490 136.5150 243° Southwest 411 473 34,000  Level FlightAware
05:10AM 35.0170 136.4380 243° Southwest 411 473 34,000  Level FlightAware
05:10AM 34.9860 136.3660 242° Southwest 411 473 34,000  Level FlightAware
05:11AM 34.9510 136.2830 243° Southwest 408 470 34,000  Level FlightAware
05:12AM 34.9210 136.2110 243° Southwest 408 470 34,000  Level FlightAware
05:12AM 34.8950 136.1490 243° Southwest 407 468 34,000  Level FlightAware
05:13AM 34.8560 136.0570 243° Southwest 407 468 34,000  Level FlightAware
05:13AM 34.8250 135.9870 242° Southwest 407 468 34,000  Level FlightAware
05:14AM 34.7940 135.9130 243° Southwest 407 468 34,000  Level FlightAware
05:15AM 34.7600 135.8340 242° Southwest 408 470 34,000  Level FlightAware
05:15AM 34.7290 135.7630 242° Southwest 412 474 34,000  Level FlightAware
05:16AM 34.6970 135.6890 242° Southwest 413 475 34,000  Level FlightAware
05:16AM 34.6660 135.6160 243° Southwest 414 476 34,000  Level FlightAware
05:17AM 34.6310 135.5360 242° Southwest 414 476 34,000  Level FlightAware
05:18AM 34.5960 135.4550 242° Southwest 414 476 34,000  Level FlightAware
05:18AM 34.5670 135.3880 242° Southwest 415 478 34,000  Level FlightAware
05:19AM 34.5360 135.3160 242° Southwest 413 475 34,000  Level FlightAware
05:19AM 34.5020 135.2400 242° Southwest 412 474 34,000  Level FlightAware
05:20AM 34.4710 135.1670 243° Southwest 411 473 34,000  Level FlightAware
05:21AM 34.4400 135.0960 242° Southwest 410 472 34,000  Level FlightAware
05:21AM 34.4120 135.0330 242° Southwest 409 471 34,000  Level FlightAware
05:22AM 34.3730 134.9460 242° Southwest 407 468 34,000  Level FlightAware
05:22AM 34.3430 134.8760 243° Southwest 406 467 34,000  Level FlightAware
05:23AM 34.3070 134.7940 242° Southwest 408 470 34,000  Level FlightAware
05:24AM 34.2740 134.7250 240° Southwest 408 470 34,000  Level FlightAware
05:24AM 34.2420 134.6710 234° Southwest 408 470 34,000  Level FlightAware
05:25AM 34.1980 134.6090 229° Southwest 408 470 34,000  Level FlightAware
05:25AM 34.1500 134.5400 230° Southwest 408 470 34,000  Level FlightAware
05:26AM 34.1080 134.4800 230° Southwest 407 468 34,000  Level FlightAware
05:27AM 34.0710 134.4270 230° Southwest 406 467 34,000  Level FlightAware
05:27AM 34.0280 134.3660 230° Southwest 407 468 34,000  Level FlightAware
05:28AM 33.9810 134.2990 230° Southwest 407 468 34,000  Level FlightAware
05:28AM 33.9440 134.2460 230° Southwest 405 466 34,000  Level FlightAware
05:29AM 33.9010 134.1860 229° Southwest 403 464 34,000  Level FlightAware
05:30AM 33.8520 134.1160 230° Southwest 405 466 34,000  Level FlightAware
05:30AM 33.8170 134.0670 229° Southwest 407 468 34,000  Level FlightAware
05:31AM 33.7690 133.9990 230° Southwest 406 467 34,000  Level FlightAware
05:31AM 33.7360 133.9520 230° Southwest 403 464 34,000  Level FlightAware
05:32AM 33.6890 133.8870 229° Southwest 400 460 34,000  Level FlightAware
05:32AM 33.6420 133.8200 230° Southwest 405 466 34,000  Level FlightAware
05:33AM 33.6110 133.7770 229° Southwest 408 470 34,000  Level FlightAware
05:34AM 33.5580 133.7020 230° Southwest 408 470 34,000  Level FlightAware
05:34AM 33.5190 133.6420 232° Southwest 406 467 34,000  Level FlightAware
05:35AM 33.4830 133.5810 235° Southwest 405 466 34,000  Level FlightAware
05:35AM 33.4390 133.5060 235° Southwest 404 465 34,000  Level FlightAware
05:36AM 33.4020 133.4420 235° Southwest 404 465 34,000  Level FlightAware
05:37AM 33.3480 133.3520 234° Southwest 407 468 34,000  Level FlightAware
05:37AM 33.3100 133.2870 235° Southwest 407 468 34,000  Level FlightAware
05:38AM 33.2710 133.2210 235° Southwest 402 463 34,000  Level FlightAware
05:39AM 33.2320 133.1550 235° Southwest 403 464 34,000  Level FlightAware
05:39AM 33.1860 133.0770 235° Southwest 404 465 34,000  Level FlightAware
05:40AM 33.1490 133.0140 235° Southwest 409 471 34,000  Level FlightAware
05:40AM 33.1200 132.9650 235° Southwest 409 471 34,000  Level FlightAware
05:41AM 33.0660 132.8720 235° Southwest 410 472 34,000  Level FlightAware
05:42AM 33.0230 132.8000 235° Southwest 411 473 34,000  Level FlightAware
05:42AM 32.9940 132.7510 235° Southwest 413 475 34,000  Level FlightAware
05:43AM 32.9560 132.6860 235° Southwest 414 476 34,000  Level FlightAware
05:43AM 32.9110 132.6110 234° Southwest 413 475 34,000  Level FlightAware
05:44AM 32.8720 132.5450 235° Southwest 406 467 34,000  Level FlightAware
05:45AM 32.8250 132.4670 234° Southwest 411 473 34,000  Level FlightAware
05:45AM 32.7820 132.3940 235° Southwest 412 474 34,000  Level FlightAware
05:46AM 32.7380 132.3210 234° Southwest 412 474 34,000  Level FlightAware
05:47AM 32.6960 132.2510 235° Southwest 409 471 34,000  Level FlightAware
05:47AM 32.6530 132.1790 235° Southwest 410 472 34,000  Level FlightAware
05:48AM 32.6100 132.1060 235° Southwest 412 474 34,000  Level FlightAware
05:49AM 32.5740 132.0450 235° Southwest 412 474 34,000  Level FlightAware
05:49AM 32.5350 131.9780 235° Southwest 410 472 34,000  Level FlightAware
05:50AM 32.4980 131.9160 235° Southwest 411 473 34,000  Level FlightAware
05:51AM 32.4480 131.8310 235° Southwest 413 475 34,000  Level FlightAware
05:51AM 32.4100 131.7680 234° Southwest 414 476 34,000  Level FlightAware
05:52AM 32.3660 131.6930 235° Southwest 412 474 34,000  Level FlightAware
05:52AM 32.3270 131.6280 235° Southwest 412 474 34,000  Level FlightAware
05:53AM 32.2890 131.5640 235° Southwest 412 474 34,000  Level FlightAware
05:54AM 32.2560 131.5070 236° Southwest 412 474 34,000  Level FlightAware
05:54AM 32.2120 131.4350 234° Southwest 413 475 34,000  Level FlightAware
05:55AM 32.1750 131.3720 235° Southwest 412 474 34,000  Level FlightAware
05:55AM 32.1340 131.3040 235° Southwest 412 474 34,000  Level FlightAware
05:56AM 32.0960 131.2410 235° Southwest 413 475 34,000  Level FlightAware
05:57AM 32.0610 131.1820 235° Southwest 414 476 34,000  Level FlightAware
05:57AM 32.0170 131.1100 234° Southwest 415 478 34,000  Level FlightAware
05:58AM 31.9750 131.0400 235° Southwest 418 481 34,000  Level FlightAware
05:58AM 31.9350 130.9740 234° Southwest 417 480 34,000  Level FlightAware
05:59AM 31.8980 130.9130 234° Southwest 415 478 34,000  Level FlightAware
06:00AM 31.8530 130.8380 235° Southwest 415 478 34,000  Level FlightAware
06:00AM 31.8180 130.7810 234° Southwest 416 479 34,000  Level FlightAware
06:01AM 31.7800 130.7190 234° Southwest 417 480 34,000  Level FlightAware
06:01AM 31.7390 130.6520 234° Southwest 418 481 34,000  Level FlightAware
06:02AM 31.6960 130.5810 235° Southwest 418 481 34,000  Level FlightAware
06:02AM 31.6610 130.5260 233° Southwest 418 481 34,000  Level FlightAware
06:03AM 31.6200 130.4650 232° Southwest 419 482 34,000  Level FlightAware
06:04AM 31.5720 130.3930 232° Southwest 420 483 34,000  Level FlightAware
06:04AM 31.5370 130.3390 233° Southwest 419 482 34,000  Level FlightAware
06:05AM 31.4960 130.2770 232° Southwest 417 480 34,000  Level FlightAware
06:05AM 31.4570 130.2190 232° Southwest 419 482 34,000  Level FlightAware
06:06AM 31.4150 130.1550 232° Southwest 420 483 34,000  Level FlightAware
06:06AM 31.3700 130.0880 232° Southwest 420 483 34,000  Level FlightAware
06:07AM 31.3300 130.0260 233° Southwest 420 483 34,000  Level FlightAware
06:08AM 31.2830 129.9560 232° Southwest 422 486 34,000  Level FlightAware
06:08AM 31.2470 129.9020 232° Southwest 422 486 34,000  Level FlightAware
06:09AM 31.2070 129.8430 232° Southwest 423 487 34,000  Level FlightAware
06:09AM 31.1600 129.7730 232° Southwest 422 486 34,000  Level FlightAware
06:10AM 31.1210 129.7140 232° Southwest 422 486 34,000  Level FlightAware
06:11AM 31.0760 129.6470 232° Southwest 423 487 34,000  Level FlightAware
06:11AM 31.0350 129.5850 232° Southwest 424 488 34,000  Level FlightAware
06:12AM 30.9950 129.5270 231° Southwest 424 488 34,000  Level FlightAware
06:12AM 30.9500 129.4590 232° Southwest 424 488 34,000  Level FlightAware
06:13AM 30.9040 129.3910 232° Southwest 424 488 34,000  Level FlightAware
06:14AM 30.8590 129.3260 231° Southwest 424 488 34,000  Level FlightAware
06:14AM 30.8280 129.2790 232° Southwest 424 488 34,000  Level FlightAware
06:15AM 30.7820 129.2120 231° Southwest 423 487 34,000  Level FlightAware
06:15AM 30.7410 129.1510 232° Southwest 423 487 34,000  Level FlightAware
06:16AM 30.7040 129.0960 232° Southwest 423 487 34,000  Level FlightAware
06:17AM 30.7550 129.1700 51° Northeast 424 488 34,000  Level FlightAware
06:17AM 30.7190 129.1150 233° Southwest 424 488 34,000  Level FlightAware
06:18AM 30.6830 129.0590 233° Southwest 424 488 34,000  Level FlightAware
06:18AM 30.6470 129.0030 233° Southwest 424 488 34,000  Level FlightAware
06:19AM 30.6090 128.9460 232° Southwest 424 488 34,000  Level FlightAware
06:20AM 30.5720 128.8890 233° Southwest 424 488 34,000  Level FlightAware
06:20AM 30.5350 128.8310 233° Southwest 424 488 34,000  Level FlightAware
06:21AM 30.4990 128.7760 233° Southwest 424 488 34,000  Level FlightAware
06:21AM 30.4630 128.7200 233° Southwest 424 488 34,000  Level FlightAware
06:22AM 30.4260 128.6630 233° Southwest 424 488 34,000  Level FlightAware
06:23AM 30.3890 128.6060 233° Southwest 424 488 34,000  Level FlightAware
06:23AM 30.3530 128.5500 233° Southwest 424 488 34,000  Level FlightAware
06:24AM 30.3160 128.4950 232° Southwest 424 488 34,000  Level FlightAware
06:24AM 30.2800 128.4390 233° Southwest 424 488 34,000  Level FlightAware
06:25AM 30.2440 128.3840 233° Southwest 424 488 34,000  Level FlightAware
06:26AM 30.2080 128.3280 233° Southwest 424 488 34,000  Level FlightAware
06:28AM 30.0637 128.1182 232° Southwest  Level FlightAware Approximate
06:28AM 29.7790 127.7210 232° Southwest 34,000  Level FlightAware
06:29AM 29.7450 127.6760 229° Southwest 437 503 34,000  Level FlightAware
06:29AM 29.6960 127.6110 229° Southwest 437 503 34,000  Level FlightAware
06:30AM 29.6480 127.5470 229° Southwest 436 502 34,000  Level FlightAware
06:31AM 29.5920 127.4710 230° Southwest 437 503 34,000  Level FlightAware
06:31AM 29.5520 127.4160 230° Southwest 437 503 34,000  Level FlightAware
06:32AM 29.5110 127.3600 230° Southwest 437 503 34,000  Level FlightAware
06:33AM 29.4720 127.3060 230° Southwest 437 503 34,000  Level FlightAware
06:33AM 29.4320 127.2520 230° Southwest 437 503 34,000  Level FlightAware
06:34AM 29.3580 127.1330 235° Southwest 431 496 34,000  Level FlightAware
06:35AM 29.3100 127.0650 231° Southwest 431 496 34,000  Level FlightAware
06:35AM 29.2670 127.0030 232° Southwest 433 498 34,000  Level FlightAware
06:36AM 29.2200 126.9350 232° Southwest 433 498 34,000  Level FlightAware
06:36AM 29.1710 126.8650 231° Southwest 436 502 34,000  Level FlightAware
06:37AM 29.1330 126.8090 232° Southwest 436 502 34,000  Level FlightAware
06:38AM 29.0940 126.7520 232° Southwest 436 502 34,000  Level FlightAware
06:38AM 29.0560 126.6970 232° Southwest 436 502 34,000  Level FlightAware
06:39AM 28.9910 126.6090 230° Southwest 437 503 34,000  Level FlightAware
06:39AM 28.9480 126.5480 231° Southwest 437 503 34,000  Level FlightAware
06:40AM 28.9090 126.4930 231° Southwest 437 503 34,000  Level FlightAware
06:41AM 28.8700 126.4380 231° Southwest 437 503 34,000  Level FlightAware
06:43AM 28.7275 126.2383 231° Southwest  Level FlightAware Approximate
06:43AM 28.6620 126.1650 231° Southwest 445 512 34,000  Level FlightAware
06:44AM 28.6000 126.0810 230° Southwest 446 513 34,000  Level FlightAware
06:45AM 28.5290 125.9790 232° Southwest 447 514 34,000  Level FlightAware
06:45AM 28.4640 125.8870 231° Southwest 447 514 34,000  Level FlightAware
06:46AM 28.4150 125.8180 231° Southwest 447 514 34,000  Level FlightAware
06:47AM 28.3580 125.7380 231° Southwest 447 514 34,000  Level FlightAware
06:48AM 28.3100 125.6710 231° Southwest 448 516 34,000  Level FlightAware
06:48AM 28.2700 125.6150 231° Southwest 448 516 34,000  Level FlightAware
06:49AM 28.2310 125.5600 231° Southwest 448 516 34,000  Level FlightAware
06:49AM 28.1910 125.5040 231° Southwest 448 516 34,000  Level FlightAware
06:50AM 28.1510 125.4480 231° Southwest 448 516 34,000  Level FlightAware
06:51AM 28.1110 125.3920 231° Southwest 448 516 34,000  Level FlightAware
06:51AM 28.0710 125.3360 231° Southwest 448 516 34,000  Level FlightAware
06:52AM 28.0310 125.2800 231° Southwest 448 516 34,000  Level FlightAware
06:52AM 27.9910 125.2240 231° Southwest 448 516 34,000  Level FlightAware
06:53AM 27.9510 125.1680 231° Southwest 448 516 34,000  Level FlightAware
06:54AM 27.9100 125.1110 231° Southwest 448 516 34,000  Level FlightAware
06:54AM 27.8700 125.0550 231° Southwest 448 516 34,000  Level FlightAware
06:55AM 27.8300 125.0000 231° Southwest 448 516 34,000  Level FlightAware
06:55AM 27.7900 124.9440 231° Southwest 448 516 34,000  Level FlightAware
06:56AM 27.7530 124.8910 232° Southwest 448 516 34,000  Level FlightAware
06:57AM 27.7130 124.8360 231° Southwest 448 516 34,000  Level FlightAware
06:59AM 27.5570 124.6274 230° Southwest  Level FlightAware Approximate
06:59AM 27.4370 124.4670 230° Southwest 34,000  Level FlightAware
07:01AM 27.2817 124.2613 230° Southwest  Level FlightAware Approximate
07:02AM 27.2032 124.1577 230° Southwest  Level FlightAware Approximate
07:03AM 27.1247 124.0544 230° Southwest  Level FlightAware Approximate
07:04AM 27.0560 123.9469 230° Southwest  Level FlightAware Approximate
07:05AM 26.9782 123.8430 230° Southwest  Level FlightAware Approximate
07:06AM 26.9002 123.7393 230° Southwest  Level FlightAware Approximate
07:07AM 26.8222 123.6357 230° Southwest  Level FlightAware Approximate
07:08AM 26.7441 123.5323 230° Southwest  Level FlightAware Approximate
07:09AM 26.6660 123.4290 230° Southwest  Level FlightAware Approximate
07:10AM 26.5877 123.3259 230° Southwest  Level FlightAware Approximate
07:10AM 26.4950 123.2130 230° Southwest 451 519 34,000  Level FlightAware
07:11AM 26.4570 123.1630 230° Southwest 452 520 34,000  Level FlightAware
07:11AM 26.3860 123.0700 230° Southwest 452 520 34,000  Level FlightAware
07:12AM 26.3380 123.0080 229° Southwest 451 519 34,000  Level FlightAware
07:13AM 26.2900 122.9450 230° Southwest 449 517 34,000  Level FlightAware
07:13AM 26.2440 122.8840 230° Southwest 449 517 34,000  Level FlightAware
07:14AM 26.1970 122.8220 230° Southwest 449 517 34,000  Level FlightAware
07:14AM 26.1460 122.7550 230° Southwest 450 518 34,000 -180 Level FlightAware
07:15AM 26.0980 122.6910 230° Southwest 439 505 33,800 -1,020 Descending FlightAware
07:16AM 26.0590 122.6390 230° Southwest 427 491 32,900 -2,160 Descending FlightAware
07:16AM 26.0110 122.5770 229° Southwest 423 487 31,400 -2,460 Descending FlightAware
07:17AM 25.9670 122.5190 230° Southwest 422 486 30,000 -2,460 Descending FlightAware
07:17AM 25.9200 122.4580 229° Southwest 423 487 28,500 -2,400 Descending FlightAware
07:18AM 25.8790 122.4070 228° Southwest 422 486 27,300 -2,340 Descending FlightAware
07:19AM 25.8320 122.3490 228° Southwest 418 481 25,900 -2,220 Descending FlightAware
07:19AM 25.7860 122.2910 229° Southwest 414 476 24,700 -2,040 Descending FlightAware
07:20AM 25.7450 122.2400 228° Southwest 411 473 23,500 -2,160 Descending FlightAware
07:20AM 25.6980 122.1810 229° Southwest 404 465 22,200 -2,100 Descending FlightAware
07:21AM 25.6590 122.1320 229° Southwest 399 459 21,200 -1,980 Descending FlightAware
07:21AM 25.6150 122.0770 228° Southwest 393 452 20,000 -1,680 Descending FlightAware
07:22AM 25.5760 122.0210 232° Southwest 369 425 19,200 -1,320 Descending FlightAware
07:22AM 25.5670 121.9950 249° West 360 414 18,900 -1,200 Descending FlightAware
07:23AM 25.5550 121.9370 257° West 352 405 18,300 -1,200 Descending FlightAware
07:23AM 25.5440 121.8750 259° West 354 407 17,600 -1,080 Descending FlightAware
07:24AM 25.5320 121.8100 258° West 338 389 17,000 -1,020 Descending FlightAware
07:25AM 25.5210 121.7540 258° West 323 372 16,400 -900 Descending FlightAware
07:25AM 25.5110 121.7010 258° West 308 354 16,000 -900 Descending FlightAware
07:26AM 25.5000 121.6430 258° West 298 343 15,400 -1,140 Descending FlightAware
07:26AM 25.4930 121.6040 259° West 299 344 14,800 -1,260 Descending FlightAware
07:27AM 25.4860 121.5790 253° West 299 344 14,500 -1,080 Descending FlightAware
07:27AM 25.4770 121.5630 238° Southwest 300 345 14,300 -900 Descending FlightAware
07:27AM 25.4450 121.5210 230° Southwest 297 342 13,800 -840 Descending FlightAware
07:28AM 25.4180 121.4870 229° Southwest 282 325 13,400 -900 Descending FlightAware
07:28AM 25.3880 121.4490 229° Southwest 268 308 12,800 -1,440 Descending FlightAware
07:29AM 25.3580 121.4100 230° Southwest 274 315 11,700 -1,800 Descending FlightAware
07:30AM 25.3280 121.3720 229° Southwest 280 322 10,700 -1,620 Descending FlightAware
07:30AM 25.3030 121.3400 229° Southwest 281 323 10,000 -1,500 Descending FlightAware
07:30AM 25.2860 121.3190 228° Southwest 277 319 9,500 -1,320 Descending FlightAware
07:31AM 25.2760 121.3060 230° Southwest 275 316 9,300 -840 Descending FlightAware
07:31AM 25.2560 121.2810 229° Southwest 269 310 9,000 -420 Descending FlightAware
07:31AM 25.2400 121.2590 231° Southwest 275 316 9,000  Level FlightAware
07:32AM 25.2290 121.2460 227° Southwest 273 314 9,000  Level FlightAware
07:32AM 25.2100 121.2220 229° Southwest 272 313 9,000  Level FlightAware
07:32AM 25.1930 121.2000 230° Southwest 262 302 9,000  Level FlightAware
07:33AM 25.1790 121.1820 229° Southwest 259 298 9,000  Level FlightAware
07:33AM 25.1620 121.1610 228° Southwest 255 293 9,000  Level FlightAware
07:33AM 25.1460 121.1400 230° Southwest 255 293 9,000  Level FlightAware
07:34AM 25.1300 121.1210 227° Southwest 250 288 9,000 -180 Level FlightAware
07:34AM 25.1110 121.0960 230° Southwest 246 283 8,900 -840 Descending FlightAware
07:34AM 25.0960 121.0770 229° Southwest 245 282 8,400 -1,500 Descending FlightAware
07:35AM 25.0820 121.0590 229° Southwest 248 285 7,900 -1,680 Descending FlightAware
07:35AM 25.0710 121.0420 234° Southwest 249 287 7,400 -1,680 Descending FlightAware
07:35AM 25.0600 121.0190 242° Southwest 244 281 6,900 -1,440 Descending FlightAware
07:36AM 25.0510 120.9990 244° Southwest 239 275 6,500 -1,380 Descending FlightAware
07:36AM 25.0410 120.9750 245° Southwest 239 275 6,000 -1,260 Descending FlightAware
07:36AM 25.0300 120.9500 244° Southwest 239 275 5,600 -900 Descending FlightAware
07:37AM 25.0220 120.9310 245° Southwest 239 275 5,400 -720 Descending FlightAware
07:37AM 25.0100 120.9030 245° Southwest 238 274 5,100 -720 Descending FlightAware
07:37AM 25.0010 120.8800 247° West 237 273 4,900 -600 Descending FlightAware
07:38AM 24.9950 120.8670 243° Southwest 238 274 4,800 -720 Descending FlightAware
07:38AM 24.9850 120.8400 248° West 239 275 4,500 -600 Descending FlightAware
07:38AM 24.9750 120.8180 243° Southwest 239 275 4,400 -480 Descending FlightAware
07:39AM 24.9670 120.7980 246° West 239 275 4,200 -540 Descending FlightAware
07:39AM 24.9590 120.7810 243° Southwest 239 275 4,100 -360 Descending FlightAware
07:39AM 24.9550 120.7770 222° Southwest 241 277 4,100 -480 Level FlightAware
07:39AM 24.9470 120.7700 218° Southwest 240 276 4,000 -360 Descending FlightAware
07:39AM 24.9400 120.7650 213° Southwest 240 276 4,000  Level FlightAware
07:39AM 24.9310 120.7610 202° Southwest 239 275 4,000  Level FlightAware
07:40AM 24.9270 120.7590 204° Southwest 239 275 4,000  Level FlightAware
07:40AM 24.9210 120.7560 204° Southwest 242 278 4,000  Level FlightAware
07:40AM 24.9150 120.7530 204° Southwest 242 278 4,000  Level FlightAware
07:40AM 24.9020 120.7460 206° Southwest 246 283 4,000  Level FlightAware
07:40AM 24.8900 120.7400 204° Southwest 247 284 4,000  Level FlightAware
07:40AM 24.8840 120.7370 204° Southwest 245 282 4,000  Level FlightAware
07:40AM 24.8780 120.7350 197° South 245 282 4,000  Level FlightAware
07:40AM 24.8730 120.7340 190° South 240 276 4,000  Level FlightAware
07:41AM 24.8610 120.7340 180° South 231 266 4,000  Level FlightAware
07:41AM 24.8550 120.7340 180° South 230 265 4,000  Level FlightAware
07:41AM 24.8500 120.7350 170° South 226 260 4,000  Level FlightAware
07:41AM 24.8260 120.7380 174° South 223 257 4,000  Level FlightAware
07:41AM 24.8200 120.7390 171° South 224 258 4,000  Level FlightAware
07:41AM 24.8160 120.7400 167° South 224 258 4,000  Level FlightAware
07:41AM 24.8060 120.7410 175° South 224 258 4,000  Level FlightAware
07:42AM 24.7970 120.7420 174° South 224 258 4,000  Level FlightAware
07:42AM 24.7880 120.7430 174° South 224 258 4,000  Level FlightAware
07:42AM 24.7700 120.7470 169° South 224 258 4,000  Level FlightAware
07:42AM 24.7660 120.7500 146° Southeast 219 252 4,000  Level FlightAware
07:43AM 24.7560 120.7670 123° Southeast 201 231 4,000  Level FlightAware
07:43AM 24.7550 120.7780 96° East 196 226 4,000  Level FlightAware
07:43AM 24.7540 120.7890 96° East 193 222 4,000  Level FlightAware
07:43AM 24.7540 120.7960 90° East 193 222 4,000  Level FlightAware
07:43AM 24.7590 120.8170 75° East 187 215 4,000  Level FlightAware
07:44AM 24.7630 120.8250 61° Northeast 189 217 4,000  Level FlightAware
07:44AM 24.7660 120.8290 50° Northeast 190 219 4,000  Level FlightAware
07:44AM 24.7690 120.8330 50° Northeast 190 219 4,000  Level FlightAware
07:44AM 24.7750 120.8400 47° Northeast 193 222 4,000  Level FlightAware
07:44AM 24.7780 120.8440 50° Northeast 197 227 4,000  Level FlightAware
07:44AM 24.7810 120.8470 42° Northeast 200 230 4,000  Level FlightAware
07:44AM 24.7870 120.8540 47° Northeast 200 230 4,000  Level FlightAware
07:44AM 24.7910 120.8600 54° Northeast 200 230 4,000  Level FlightAware
07:44AM 24.7970 120.8670 47° Northeast 200 230 4,000  Level FlightAware
07:45AM 24.8000 120.8710 50° Northeast 200 230 4,000  Level FlightAware
07:45AM 24.8040 120.8750 42° Northeast 200 230 4,000  Level FlightAware
07:45AM 24.8090 120.8820 52° Northeast 199 229 4,000  Level FlightAware
07:45AM 24.8140 120.8880 47° Northeast 198 228 4,000  Level FlightAware
07:45AM 24.8210 120.8980 52° Northeast 197 227 4,000  Level FlightAware
07:45AM 24.8220 120.8990 42° Northeast 197 227 4,000  Level FlightAware
07:45AM 24.8280 120.9060 47° Northeast 198 228 4,000  Level FlightAware
07:45AM 24.8320 120.9110 49° Northeast 198 228 4,000  Level FlightAware
07:46AM 24.8360 120.9160 49° Northeast 198 228 4,000  Level FlightAware
07:46AM 24.8410 120.9220 47° Northeast 197 227 4,000  Level FlightAware
07:46AM 24.8480 120.9310 49° Northeast 199 229 4,000  Level FlightAware
07:46AM 24.8550 120.9400 49° Northeast 200 230 4,000  Level FlightAware
07:46AM 24.8570 120.9430 54° Northeast 200 230 4,000  Level FlightAware
07:46AM 24.8610 120.9480 49° Northeast 200 230 4,000  Level FlightAware
07:46AM 24.8680 120.9560 46° Northeast 202 232 4,000  Level FlightAware
07:46AM 24.8690 120.9580 61° Northeast 202 232 4,000  Level FlightAware
07:47AM 24.8750 120.9650 47° Northeast 202 232 4,000  Level FlightAware
07:47AM 24.8770 120.9680 54° Northeast 201 231 4,000  Level FlightAware
07:47AM 24.8910 120.9850 48° Northeast 197 227 4,000  Level FlightAware
07:47AM 24.8960 120.9920 52° Northeast 200 230 4,000  Level FlightAware
07:47AM 24.9010 120.9980 47° Northeast 199 229 4,000  Level FlightAware
07:47AM 24.9030 121.0010 54° Northeast 198 228 4,000  Level FlightAware
07:47AM 24.9070 121.0060 49° Northeast 199 229 4,000  Level FlightAware
07:48AM 24.9120 121.0120 47° Northeast 198 228 4,000  Level FlightAware
07:48AM 24.9150 121.0150 42° Northeast 199 229 4,000  Level FlightAware
07:48AM 24.9200 121.0220 52° Northeast 199 229 4,000  Level FlightAware
07:48AM 24.9240 121.0280 54° Northeast 196 226 4,000  Level FlightAware
07:48AM 24.9290 121.0340 47° Northeast 188 216 4,000  Level FlightAware
07:48AM 24.9340 121.0390 42° Northeast 185 213 4,000  Level FlightAware
07:48AM 24.9350 121.0420 70° East 183 211 4,000  Level FlightAware
07:48AM 24.9400 121.0470 42° Northeast 176 203 4,000 -420 Level FlightAware
07:49AM 24.9440 121.0530 54° Northeast 170 196 3,900 -1,020 Descending FlightAware
07:49AM 24.9470 121.0560 42° Northeast 168 193 3,800 -1,200 Descending FlightAware
07:49AM 24.9490 121.0590 54° Northeast 167 192 3,700 -780 Descending FlightAware
07:49AM 24.9550 121.0660 47° Northeast 163 188 3,600 -720 Descending FlightAware
07:49AM 24.9580 121.0710 57° Northeast 160 184 3,500 -900 Descending FlightAware
07:49AM 24.9610 121.0740 42° Northeast 158 182 3,400 -1,200 Descending FlightAware
07:49AM 24.9630 121.0770 54° Northeast 157 181 3,300 -840 Descending FlightAware
07:49AM 24.9680 121.0830 47° Northeast 152 175 3,200 -660 Descending FlightAware
07:49AM 24.9720 121.0870 42° Northeast 149 171 3,100 -1,320 Descending FlightAware
07:50AM 24.9750 121.0910 50° Northeast 147 169 2,900 -1,140 Descending FlightAware
07:50AM 24.9770 121.0940 54° Northeast 147 169 2,900 -480 Level FlightAware
07:50AM 24.9800 121.0990 56° Northeast 146 168 2,800 -780 Descending FlightAware
07:50AM 24.9840 121.1030 42° Northeast 146 168 2,700 -780 Descending FlightAware
07:50AM 24.9910 121.1120 49° Northeast 146 168 2,500 -840 Descending FlightAware
07:51AM 25.0000 121.1240 50° Northeast 151 174 2,200 -900 Descending FlightAware
07:51AM 25.0090 121.1350 48° Northeast 148 170 1,900 -840 Descending FlightAware
07:51AM 25.0180 121.1460 48° Northeast 151 174 1,700 -720 Descending FlightAware
07:52AM 25.0300 121.1610 49° Northeast 152 175 1,400 -840 Descending FlightAware
07:52AM 25.0390 121.1730 50° Northeast 153 176 1,100 -900 Descending FlightAware
07:52AM 25.0480 121.1850 50° Northeast 156 180 800 -900 Descending FlightAware
07:53AM 25.0580 121.1970 47° Northeast 158 182 500 -840 Descending FlightAware
07:53AM 25.0700 121.2120 49° Northeast 161 185 200 -840 Descending FlightAware
07:53AM 25.0800 121.2240 47° Northeast 145 167 -600 Descending FlightAware
07:54AM 25.0860 121.2320 50° Northeast 74 85  Level FlightAware